Pennsylvania — WAPZ — position and weather

sailwx.info

Track history (hours):
 
Tides and Currents Weather Stations Pressure Air Temp Water Temp Dewpoint Dewpoint Depression Visibility Wind Speed Wind Dir Waves Ship Positions

Pennsylvania

Owner: Crowley Petroleum Services, Jacksonville, FL. More information available from US FCC via Universal Licensing System and Coast Guard Vessel Documentation Center.

Last reported at 2016-Dec-06 14:33 UTC. Time now 2016-Dec-10 16:40 UTC.
Position N 25°17' W 080°04'.

Length 183 m; draft 8.5 m.

Type: Tanker. MMSI: 338617000.

Date/timePositionNaut miles runAvg speedWind from/ knotsBaromVisibWave heightAir tempDewpointWater temp
2016-Dec-06 14:33N 25°17' W 080°04'1111.3
2016-Dec-06 13:33N 25°28' W 080°01'1111.2
2016-Dec-06 12:33N 25°39' W 080°01'1111.1
2016-Dec-06 11:33N 25°50' W 079°60'1111.3
2016-Dec-06 10:33N 26°01' W 079°59'1111.0
2016-Dec-06 09:33N 26°12' W 079°58'1111.2
2016-Dec-06 08:33N 26°23' W 079°57'1211.8
2016-Dec-06 07:33N 26°35' W 079°56'1111.4
2016-Dec-06 06:33N 26°46' W 079°55'1010.4
2016-Dec-06 05:33N 26°57' W 079°54'  
2016-Dec-03 18:23N 38°54' W 075°05'1113.3
2016-Dec-03 17:33N 39°04' W 075°11'1313.2
2016-Dec-03 16:33N 39°15' W 075°20'1212.5
2016-Dec-03 15:33N 39°25' W 075°31'1212.3
2016-Dec-03 14:33N 39°37' W 075°35'1313.4
2016-Dec-03 13:33N 39°48' W 075°26'1 1.1
2016-Dec-03 12:31N 39°49' W 075°24'0 0.0
2016-Dec-03 11:31N 39°49' W 075°24'0 0.0
2016-Dec-03 10:31N 39°49' W 075°24'0 0.0
2016-Dec-03 09:31N 39°49' W 075°24'0 0.0
2016-Dec-03 08:28N 39°49' W 075°24'0 0.0
2016-Dec-03 07:31N 39°49' W 075°24'0 0.0
2016-Dec-03 06:31N 39°49' W 075°24'0 0.0
2016-Dec-03 05:31N 39°49' W 075°24'0 0.0
2016-Dec-03 04:31N 39°49' W 075°24'0 0.0
2016-Dec-03 03:31N 39°49' W 075°24'0 0.0
2016-Dec-03 02:31N 39°49' W 075°24'0 0.0
2016-Dec-03 01:31N 39°49' W 075°24'0 0.0
2016-Dec-03 00:31N 39°49' W 075°24'0 0.0
2016-Dec-02 23:31N 39°49' W 075°24'0 0.0
2016-Dec-02 22:31N 39°49' W 075°24'0 0.0
2016-Dec-02 21:31N 39°49' W 075°24'0 0.0
2016-Dec-02 20:28N 39°49' W 075°24'0 0.0
2016-Dec-02 19:31N 39°49' W 075°24'0 0.0
2016-Dec-02 18:31N 39°49' W 075°24'0 0.0
2016-Dec-02 17:31N 39°49' W 075°24'0 0.0
2016-Dec-02 16:31N 39°49' W 075°24'1 0.7
2016-Dec-02 15:33N 39°49' W 075°24'4 4.4
2016-Dec-02 14:33N 39°51' W 075°18'6 5.9
2016-Dec-02 13:33N 39°53' W 075°11'1 1.2
2016-Dec-02 12:31N 39°53' W 075°09'0 0.0
2016-Dec-02 11:32N 39°53' W 075°09'0 0.0
2016-Dec-02 10:32N 39°53' W 075°09'0 0.0
2016-Dec-02 09:31N 39°53' W 075°09'0 0.0
2016-Dec-02 08:32N 39°53' W 075°09'0 0.0
2016-Dec-02 07:31N 39°53' W 075°09'0 0.0
2016-Dec-02 06:31N 39°53' W 075°09'0 0.0
2016-Dec-02 05:31N 39°53' W 075°09'0 0.0
2016-Dec-02 04:31N 39°53' W 075°09'0 0.0
2016-Dec-02 03:31N 39°53' W 075°09'0 0.0
2016-Dec-02 02:31N 39°53' W 075°09'0 0.0
2016-Dec-02 01:31N 39°53' W 075°09'0 0.0
2016-Dec-02 00:31N 39°53' W 075°09'0 0.0
2016-Dec-01 23:31N 39°53' W 075°09'0 0.0
2016-Dec-01 22:31N 39°53' W 075°09'0 0.0
2016-Dec-01 21:31N 39°53' W 075°09'0 0.0
2016-Dec-01 20:31N 39°53' W 075°09'0 0.0
2016-Dec-01 19:31N 39°53' W 075°09'0 0.0
2016-Dec-01 18:31N 39°53' W 075°09'0 0.0
2016-Dec-01 17:31N 39°53' W 075°09'0 0.0
2016-Dec-01 16:31N 39°53' W 075°09'0 0.0
2016-Dec-01 15:31N 39°53' W 075°09'0 0.0
2016-Dec-01 14:31N 39°53' W 075°09'0 0.0
2016-Dec-01 13:31N 39°53' W 075°09'0 0.0
2016-Dec-01 12:31N 39°53' W 075°09'0 0.0
2016-Dec-01 11:31N 39°53' W 075°09'0 0.0
2016-Dec-01 10:31N 39°53' W 075°09'0 0.0
2016-Dec-01 09:31N 39°53' W 075°09'0 0.0
2016-Dec-01 08:31N 39°53' W 075°09'0 0.0
2016-Dec-01 07:31N 39°53' W 075°09'0 0.0
2016-Dec-01 06:31N 39°53' W 075°09'0 0.0
2016-Dec-01 05:31N 39°53' W 075°09'0 0.0
2016-Dec-01 04:31N 39°53' W 075°09'0 0.0
2016-Dec-01 03:31N 39°53' W 075°09'0 0.0
2016-Dec-01 02:31N 39°53' W 075°09'0 0.0
2016-Dec-01 01:31N 39°53' W 075°09'0 0.0
2016-Dec-01 00:31N 39°53' W 075°09'0 0.0
2016-Nov-30 23:31N 39°53' W 075°09'0 0.0
2016-Nov-30 22:31N 39°53' W 075°09'0 0.0
2016-Nov-30 21:31N 39°53' W 075°09'0 0.0
2016-Nov-30 20:31N 39°53' W 075°09'0 0.0
2016-Nov-30 19:31N 39°53' W 075°09'0 0.0
2016-Nov-30 18:31N 39°53' W 075°09'0 0.0
2016-Nov-30 17:31N 39°53' W 075°09'0 0.0
2016-Nov-30 16:31N 39°53' W 075°09'0 0.0
2016-Nov-30 15:31N 39°53' W 075°09'0 0.0
2016-Nov-30 14:31N 39°53' W 075°09'0 0.0
2016-Nov-30 13:31N 39°53' W 075°09'0 0.0
2016-Nov-30 12:31N 39°53' W 075°09'0 0.0
2016-Nov-30 11:31N 39°53' W 075°09'0 0.0
2016-Nov-30 10:31N 39°53' W 075°09'0 0.0
2016-Nov-30 09:31N 39°53' W 075°09'0 0.0
2016-Nov-30 07:31N 39°53' W 075°09'0 0.0
2016-Nov-30 06:28N 39°53' W 075°09'0 0.0
2016-Nov-30 05:22N 39°53' W 075°09'0 0.0
2016-Nov-30 04:31N 39°53' W 075°09'0 0.0
2016-Nov-30 03:31N 39°53' W 075°09'0 0.0
2016-Nov-30 02:31N 39°53' W 075°09'0 0.0
2016-Nov-30 01:31N 39°53' W 075°09'0 0.0
2016-Nov-30 00:31N 39°53' W 075°09'0 0.0
2016-Nov-29 23:31N 39°53' W 075°09'0 0.0
2016-Nov-29 22:31N 39°53' W 075°09'0 0.0
2016-Nov-29 21:31N 39°53' W 075°09'0 0.0
2016-Nov-29 20:31N 39°53' W 075°09'0 0.0
2016-Nov-29 19:31N 39°53' W 075°09'0 0.0
2016-Nov-29 18:28N 39°53' W 075°09'0 0.0
2016-Nov-29 17:31N 39°53' W 075°09'0 0.0
2016-Nov-29 16:31N 39°53' W 075°09'0 0.0
2016-Nov-29 15:31N 39°53' W 075°09'0 0.0
2016-Nov-29 14:31N 39°53' W 075°09'0 0.0
2016-Nov-29 13:31N 39°53' W 075°09'0 0.0
2016-Nov-29 12:31N 39°53' W 075°09'0 0.0
2016-Nov-29 11:31N 39°53' W 075°09'0 0.0
2016-Nov-29 10:31N 39°53' W 075°09'0 0.2
2016-Nov-29 09:33N 39°53' W 075°10'7 6.6
2016-Nov-29 08:33N 39°51' W 075°18'5 5.3
2016-Nov-29 07:32N 39°49' W 075°24'12 0.4
2016-Nov-27 23:28N 39°53' W 075°09'0 0.0
2016-Nov-27 22:31N 39°53' W 075°09'0 0.0
2016-Nov-27 21:31N 39°53' W 075°09'0 0.0
2016-Nov-27 20:31N 39°53' W 075°09'0 0.0
2016-Nov-27 19:31N 39°53' W 075°09'0 0.0
2016-Nov-27 18:31N 39°53' W 075°09'0 0.0
2016-Nov-27 17:31N 39°53' W 075°09'0 0.0
2016-Nov-27 16:31N 39°53' W 075°09'0 0.0
2016-Nov-27 15:31N 39°53' W 075°09'0 0.0
2016-Nov-27 14:31N 39°53' W 075°09'0 0.0
2016-Nov-27 13:31N 39°53' W 075°09'0 0.0
2016-Nov-27 12:31N 39°53' W 075°09'0 0.0
2016-Nov-27 11:28N 39°53' W 075°09'0 0.0
2016-Nov-27 10:31N 39°53' W 075°09'0 0.0
2016-Nov-27 09:31N 39°53' W 075°09'0 0.0
2016-Nov-27 08:20N 39°53' W 075°09'0 0.0
2016-Nov-27 07:32N 39°53' W 075°09'0 0.0
2016-Nov-27 06:33N 39°53' W 075°09'0 0.0
2016-Nov-27 05:28N 39°53' W 075°09'0 0.0
2016-Nov-27 04:33N 39°53' W 075°09'0 0.0
2016-Nov-27 03:31N 39°53' W 075°09'0 0.0
2016-Nov-27 02:26N 39°53' W 075°09'0 0.0
2016-Nov-27 01:32N 39°53' W 075°09'0 0.0
2016-Nov-27 00:31N 39°53' W 075°09'0 0.0
2016-Nov-26 23:31N 39°53' W 075°09'0 0.0
2016-Nov-26 22:31N 39°53' W 075°09'0 0.0
2016-Nov-26 21:31N 39°53' W 075°09'0 0.0
2016-Nov-26 20:31N 39°53' W 075°09'0 0.0
2016-Nov-26 19:31N 39°53' W 075°09'0 0.0
2016-Nov-26 18:31N 39°53' W 075°09'0 0.0
2016-Nov-26 17:31N 39°53' W 075°09'0 0.0
2016-Nov-26 16:31N 39°53' W 075°09'0 0.0
2016-Nov-26 15:31N 39°53' W 075°09'  
Track history (hours):
 
Tides and Currents Weather Stations Pressure Air Temp Water Temp Dewpoint Dewpoint Depression Visibility Wind Speed Wind Dir Waves Ship Positions

Pennsylvania

Owner: Crowley Petroleum Services, Jacksonville, FL. More information available from US FCC via Universal Licensing System and Coast Guard Vessel Documentation Center.

Last reported at 2016-Dec-06 14:33 UTC. Time now 2016-Dec-10 16:40 UTC.
Position N 25°17' W 080°04'.

Length 183 m; draft 8.5 m.

Type: Tanker. MMSI: 338617000.

Date/timePositionNaut miles runAvg speedWind from/ knotsBaromVisibWave heightAir tempDewpointWater temp
2016-Dec-06 14:33N 25°17' W 080°04'1111.3
2016-Dec-06 13:33N 25°28' W 080°01'1111.2
2016-Dec-06 12:33N 25°39' W 080°01'1111.1
2016-Dec-06 11:33N 25°50' W 079°60'1111.3
2016-Dec-06 10:33N 26°01' W 079°59'1111.0
2016-Dec-06 09:33N 26°12' W 079°58'1111.2
2016-Dec-06 08:33N 26°23' W 079°57'1211.8
2016-Dec-06 07:33N 26°35' W 079°56'1111.4
2016-Dec-06 06:33N 26°46' W 079°55'1010.4
2016-Dec-06 05:33N 26°57' W 079°54'  
2016-Dec-03 18:23N 38°54' W 075°05'1113.3
2016-Dec-03 17:33N 39°04' W 075°11'1313.2
2016-Dec-03 16:33N 39°15' W 075°20'1212.5
2016-Dec-03 15:33N 39°25' W 075°31'1212.3
2016-Dec-03 14:33N 39°37' W 075°35'1313.4
2016-Dec-03 13:33N 39°48' W 075°26'1 1.1
2016-Dec-03 12:31N 39°49' W 075°24'0 0.0
2016-Dec-03 11:31N 39°49' W 075°24'0 0.0
2016-Dec-03 10:31N 39°49' W 075°24'0 0.0
2016-Dec-03 09:31N 39°49' W 075°24'0 0.0
2016-Dec-03 08:28N 39°49' W 075°24'0 0.0
2016-Dec-03 07:31N 39°49' W 075°24'0 0.0
2016-Dec-03 06:31N 39°49' W 075°24'0 0.0
2016-Dec-03 05:31N 39°49' W 075°24'0 0.0
2016-Dec-03 04:31N 39°49' W 075°24'0 0.0
2016-Dec-03 03:31N 39°49' W 075°24'0 0.0
2016-Dec-03 02:31N 39°49' W 075°24'0 0.0
2016-Dec-03 01:31N 39°49' W 075°24'0 0.0
2016-Dec-03 00:31N 39°49' W 075°24'0 0.0
2016-Dec-02 23:31N 39°49' W 075°24'0 0.0
2016-Dec-02 22:31N 39°49' W 075°24'0 0.0
2016-Dec-02 21:31N 39°49' W 075°24'0 0.0
2016-Dec-02 20:28N 39°49' W 075°24'0 0.0
2016-Dec-02 19:31N 39°49' W 075°24'0 0.0
2016-Dec-02 18:31N 39°49' W 075°24'0 0.0
2016-Dec-02 17:31N 39°49' W 075°24'0 0.0
2016-Dec-02 16:31N 39°49' W 075°24'1 0.7
2016-Dec-02 15:33N 39°49' W 075°24'4 4.4
2016-Dec-02 14:33N 39°51' W 075°18'6 5.9
2016-Dec-02 13:33N 39°53' W 075°11'1 1.2
2016-Dec-02 12:31N 39°53' W 075°09'0 0.0
2016-Dec-02 11:32N 39°53' W 075°09'0 0.0
2016-Dec-02 10:32N 39°53' W 075°09'0 0.0
2016-Dec-02 09:31N 39°53' W 075°09'0 0.0
2016-Dec-02 08:32N 39°53' W 075°09'0 0.0
2016-Dec-02 07:31N 39°53' W 075°09'0 0.0
2016-Dec-02 06:31N 39°53' W 075°09'0 0.0
2016-Dec-02 05:31N 39°53' W 075°09'0 0.0
2016-Dec-02 04:31N 39°53' W 075°09'0 0.0
2016-Dec-02 03:31N 39°53' W 075°09'0 0.0
2016-Dec-02 02:31N 39°53' W 075°09'0 0.0
2016-Dec-02 01:31N 39°53' W 075°09'0 0.0
2016-Dec-02 00:31N 39°53' W 075°09'0 0.0
2016-Dec-01 23:31N 39°53' W 075°09'0 0.0
2016-Dec-01 22:31N 39°53' W 075°09'0 0.0
2016-Dec-01 21:31N 39°53' W 075°09'0 0.0
2016-Dec-01 20:31N 39°53' W 075°09'0 0.0
2016-Dec-01 19:31N 39°53' W 075°09'0 0.0
2016-Dec-01 18:31N 39°53' W 075°09'0 0.0
2016-Dec-01 17:31N 39°53' W 075°09'0 0.0
2016-Dec-01 16:31N 39°53' W 075°09'0 0.0
2016-Dec-01 15:31N 39°53' W 075°09'0 0.0
2016-Dec-01 14:31N 39°53' W 075°09'0 0.0
2016-Dec-01 13:31N 39°53' W 075°09'0 0.0
2016-Dec-01 12:31N 39°53' W 075°09'0 0.0
2016-Dec-01 11:31N 39°53' W 075°09'0 0.0
2016-Dec-01 10:31N 39°53' W 075°09'0 0.0
2016-Dec-01 09:31N 39°53' W 075°09'0 0.0
2016-Dec-01 08:31N 39°53' W 075°09'0 0.0
2016-Dec-01 07:31N 39°53' W 075°09'0 0.0
2016-Dec-01 06:31N 39°53' W 075°09'0 0.0
2016-Dec-01 05:31N 39°53' W 075°09'0 0.0
2016-Dec-01 04:31N 39°53' W 075°09'0 0.0
2016-Dec-01 03:31N 39°53' W 075°09'0 0.0
2016-Dec-01 02:31N 39°53' W 075°09'0 0.0
2016-Dec-01 01:31N 39°53' W 075°09'0 0.0
2016-Dec-01 00:31N 39°53' W 075°09'0 0.0
2016-Nov-30 23:31N 39°53' W 075°09'0 0.0
2016-Nov-30 22:31N 39°53' W 075°09'0 0.0
2016-Nov-30 21:31N 39°53' W 075°09'0 0.0
2016-Nov-30 20:31N 39°53' W 075°09'0 0.0
2016-Nov-30 19:31N 39°53' W 075°09'0 0.0
2016-Nov-30 18:31N 39°53' W 075°09'0 0.0
2016-Nov-30 17:31N 39°53' W 075°09'0 0.0
2016-Nov-30 16:31N 39°53' W 075°09'0 0.0
2016-Nov-30 15:31N 39°53' W 075°09'0 0.0
2016-Nov-30 14:31N 39°53' W 075°09'0 0.0
2016-Nov-30 13:31N 39°53' W 075°09'0 0.0
2016-Nov-30 12:31N 39°53' W 075°09'0 0.0
2016-Nov-30 11:31N 39°53' W 075°09'0 0.0
2016-Nov-30 10:31N 39°53' W 075°09'0 0.0
2016-Nov-30 09:31N 39°53' W 075°09'0 0.0
2016-Nov-30 07:31N 39°53' W 075°09'0 0.0
2016-Nov-30 06:28N 39°53' W 075°09'0 0.0
2016-Nov-30 05:22N 39°53' W 075°09'0 0.0
2016-Nov-30 04:31N 39°53' W 075°09'0 0.0
2016-Nov-30 03:31N 39°53' W 075°09'0 0.0
2016-Nov-30 02:31N 39°53' W 075°09'0 0.0
2016-Nov-30 01:31N 39°53' W 075°09'0 0.0
2016-Nov-30 00:31N 39°53' W 075°09'0 0.0
2016-Nov-29 23:31N 39°53' W 075°09'0 0.0
2016-Nov-29 22:31N 39°53' W 075°09'0 0.0
2016-Nov-29 21:31N 39°53' W 075°09'0 0.0
2016-Nov-29 20:31N 39°53' W 075°09'0 0.0
2016-Nov-29 19:31N 39°53' W 075°09'0 0.0
2016-Nov-29 18:28N 39°53' W 075°09'0 0.0
2016-Nov-29 17:31N 39°53' W 075°09'0 0.0
2016-Nov-29 16:31N 39°53' W 075°09'0 0.0
2016-Nov-29 15:31N 39°53' W 075°09'0 0.0
2016-Nov-29 14:31N 39°53' W 075°09'0 0.0
2016-Nov-29 13:31N 39°53' W 075°09'0 0.0
2016-Nov-29 12:31N 39°53' W 075°09'0 0.0
2016-Nov-29 11:31N 39°53' W 075°09'0 0.0
2016-Nov-29 10:31N 39°53' W 075°09'0 0.2
2016-Nov-29 09:33N 39°53' W 075°10'7 6.6
2016-Nov-29 08:33N 39°51' W 075°18'5 5.3
2016-Nov-29 07:32N 39°49' W 075°24'12 0.4
2016-Nov-27 23:28N 39°53' W 075°09'0 0.0
2016-Nov-27 22:31N 39°53' W 075°09'0 0.0
2016-Nov-27 21:31N 39°53' W 075°09'0 0.0
2016-Nov-27 20:31N 39°53' W 075°09'0 0.0
2016-Nov-27 19:31N 39°53' W 075°09'0 0.0
2016-Nov-27 18:31N 39°53' W 075°09'0 0.0
2016-Nov-27 17:31N 39°53' W 075°09'0 0.0
2016-Nov-27 16:31N 39°53' W 075°09'0 0.0
2016-Nov-27 15:31N 39°53' W 075°09'0 0.0
2016-Nov-27 14:31N 39°53' W 075°09'0 0.0
2016-Nov-27 13:31N 39°53' W 075°09'0 0.0
2016-Nov-27 12:31N 39°53' W 075°09'0 0.0
2016-Nov-27 11:28N 39°53' W 075°09'0 0.0
2016-Nov-27 10:31N 39°53' W 075°09'0 0.0
2016-Nov-27 09:31N 39°53' W 075°09'0 0.0
2016-Nov-27 08:20N 39°53' W 075°09'0 0.0
2016-Nov-27 07:32N 39°53' W 075°09'0 0.0
2016-Nov-27 06:33N 39°53' W 075°09'0 0.0
2016-Nov-27 05:28N 39°53' W 075°09'0 0.0
2016-Nov-27 04:33N 39°53' W 075°09'0 0.0
2016-Nov-27 03:31N 39°53' W 075°09'0 0.0
2016-Nov-27 02:26N 39°53' W 075°09'0 0.0
2016-Nov-27 01:32N 39°53' W 075°09'0 0.0
2016-Nov-27 00:31N 39°53' W 075°09'0 0.0
2016-Nov-26 23:31N 39°53' W 075°09'0 0.0
2016-Nov-26 22:31N 39°53' W 075°09'0 0.0
2016-Nov-26 21:31N 39°53' W 075°09'0 0.0
2016-Nov-26 20:31N 39°53' W 075°09'0 0.0
2016-Nov-26 19:31N 39°53' W 075°09'0 0.0
2016-Nov-26 18:31N 39°53' W 075°09'0 0.0
2016-Nov-26 17:31N 39°53' W 075°09'0 0.0
2016-Nov-26 16:31N 39°53' W 075°09'0 0.0
2016-Nov-26 15:31N 39°53' W 075°09'  

Dump ship's entire track history